Terminal Aerodrome Forecast
Issued by NWS Sioux Falls, SD

Home | Current Version | Previous Version | Graphics & Text | Print | Product List | Glossary Off
Versions: 1 2 3 4 5 6 7 8 9 10 11 12 13 14 15 16 17 18

000
FTUS43 KFSD 220500
TAFFSD
TAF
KFSD 220520Z 2206/2306 35004KT P6SM SCT250
     FM221000 VRB03KT 5SM BR SCT200
     FM221400 05006KT P6SM SCT200
     FM221800 08007KT P6SM SCT035
     FM230100 07005KT P6SM SCT035 BKN180=

USA.gov is the U.S. government's official web portal to all federal, state and local government web resources and services.